createdAt,value
2022-09-28T00:03:40.364Z,13.45
2022-09-28T00:23:40.661Z,13.44
2022-09-28T00:43:40.588Z,13.42
2022-09-28T01:03:40.554Z,13.41
2022-09-28T01:23:40.563Z,13.39
2022-09-28T01:43:40.535Z,13.38
2022-09-28T02:03:40.517Z,13.37
2022-09-28T02:23:40.499Z,13.36
2022-09-28T02:43:40.490Z,13.36
2022-09-28T03:03:40.467Z,13.36
2022-09-28T03:23:40.437Z,13.35
2022-09-28T03:43:40.433Z,13.35
2022-09-28T04:03:40.416Z,13.33
2022-09-28T04:23:40.131Z,13.32
2022-09-28T04:43:40.357Z,13.3
2022-09-28T05:03:40.356Z,13.28
2022-09-28T05:23:40.357Z,13.27
2022-09-28T05:43:40.316Z,13.26
2022-09-28T06:03:40.308Z,13.26
2022-09-28T06:23:40.757Z,13.25
2022-09-28T06:43:40.240Z,13.25
2022-09-28T07:03:40.245Z,13.25
2022-09-28T07:23:50.585Z,13.24
2022-09-28T07:43:40.216Z,13.22
2022-09-28T08:03:40.171Z,13.21
2022-09-28T08:43:40.145Z,13.18
2022-09-28T09:03:40.095Z,13.17
2022-09-28T09:23:40.101Z,13.16
2022-09-28T09:43:40.043Z,13.16
2022-09-28T10:03:40.041Z,13.15
2022-09-28T10:23:40.018Z,13.15
2022-09-28T10:43:39.735Z,13.15
2022-09-28T11:03:40.009Z,13.15
2022-09-28T11:23:39.939Z,13.15
2022-09-28T11:43:39.922Z,13.15
2022-09-28T12:03:39.926Z,13.15
2022-09-28T12:23:39.824Z,13.15
2022-09-28T12:43:39.814Z,13.15
2022-09-28T13:03:39.809Z,13.15
2022-09-28T13:23:39.779Z,13.15
2022-09-28T14:03:39.714Z,13.15
2022-09-28T14:23:39.666Z,13.16
2022-09-28T14:43:39.643Z,13.16
2022-09-28T15:03:39.593Z,13.17
2022-09-28T15:23:39.576Z,13.18
2022-09-28T15:43:39.538Z,13.2
2022-09-28T16:03:39.554Z,13.22
2022-09-28T16:23:39.476Z,13.23
2022-09-28T16:43:39.458Z,13.24
2022-09-28T17:03:39.492Z,13.25
2022-09-28T17:23:39.386Z,13.25
2022-09-28T17:43:39.385Z,13.26
2022-09-28T18:03:39.359Z,13.26
2022-09-28T18:23:39.333Z,13.27
2022-09-28T18:43:39.332Z,13.28
2022-09-28T19:03:39.295Z,13.3
2022-09-28T19:23:39.275Z,13.3
2022-09-28T19:43:39.277Z,13.31
2022-09-28T20:03:39.216Z,13.32
2022-09-28T20:23:39.195Z,13.33
2022-09-28T20:43:39.238Z,13.33
2022-09-28T21:03:39.178Z,13.33
2022-09-28T21:23:39.168Z,13.33
2022-09-28T21:43:38.519Z,13.33
2022-09-28T22:03:38.848Z,13.32
2022-09-28T22:23:39.100Z,13.31
2022-09-28T22:43:39.091Z,13.31
2022-09-28T23:23:39.070Z,13.29
2022-09-28T23:43:38.808Z,13.28
